createdAt,value
2022-09-01T00:00:14.325Z,0.00
2022-09-01T00:01:14.305Z,0.00
2022-09-01T00:02:14.321Z,0.00
2022-09-01T00:03:14.286Z,0.00
2022-09-01T00:04:14.322Z,0.00
2022-09-01T00:05:14.263Z,0.00
2022-09-01T00:06:14.251Z,0.00
2022-09-01T00:07:14.236Z,0.00
2022-09-01T00:08:18.472Z,0.00
2022-09-01T00:09:14.216Z,0.00
2022-09-01T00:10:14.222Z,0.00
2022-09-01T00:11:14.194Z,0.00
2022-09-01T00:12:14.175Z,0.00
2022-09-01T00:13:14.173Z,0.00
2022-09-01T00:14:29.900Z,0.00
2022-09-01T00:15:15.155Z,0.00
2022-09-01T00:16:14.237Z,0.00
2022-09-01T00:17:14.128Z,0.00
2022-09-01T00:18:14.113Z,0.00
2022-09-01T00:19:14.093Z,0.00
2022-09-01T00:20:18.221Z,0.00
2022-09-01T00:21:15.084Z,0.00
2022-09-01T00:22:14.062Z,0.00
2022-09-01T00:23:14.055Z,0.00
2022-09-01T00:24:14.043Z,0.00
2022-09-01T00:25:14.032Z,0.00
2022-09-01T00:26:14.022Z,0.00
2022-09-01T00:27:14.002Z,0.00
2022-09-01T00:28:13.992Z,0.00
2022-09-01T00:29:13.981Z,0.00
2022-09-01T00:30:13.969Z,0.00
2022-09-01T00:31:14.010Z,0.00
2022-09-01T00:32:13.953Z,0.00
2022-09-01T00:33:13.932Z,0.00
2022-09-01T00:34:13.925Z,0.00
2022-09-01T00:35:13.911Z,0.00
2022-09-01T00:36:13.912Z,0.00
2022-09-01T00:37:13.892Z,0.00
2022-09-01T00:38:13.881Z,0.00
2022-09-01T00:39:13.871Z,0.00
2022-09-01T00:40:13.949Z,0.00
2022-09-01T00:41:13.842Z,0.00
2022-09-01T00:42:13.841Z,0.00
2022-09-01T00:43:13.821Z,0.00
2022-09-01T00:44:13.810Z,0.00
2022-09-01T00:45:13.801Z,0.00
2022-09-01T00:46:13.822Z,0.00
2022-09-01T00:47:13.781Z,0.00
2022-09-01T00:48:13.771Z,0.00
2022-09-01T00:49:13.759Z,0.00
2022-09-01T00:50:13.741Z,0.00
2022-09-01T00:51:13.730Z,0.00
2022-09-01T00:52:13.731Z,0.00
2022-09-01T00:53:13.711Z,0.00
2022-09-01T00:54:13.701Z,0.00
2022-09-01T00:55:13.689Z,0.00
2022-09-01T00:56:13.680Z,0.00
2022-09-01T00:57:13.676Z,0.00
2022-09-01T00:58:19.764Z,0.00
2022-09-01T00:59:14.639Z,0.00
2022-09-01T01:00:13.630Z,0.00
2022-09-01T01:01:13.657Z,0.00
2022-09-01T01:02:13.692Z,0.00
2022-09-01T01:03:13.606Z,0.00
2022-09-01T01:04:13.579Z,0.00
2022-09-01T01:05:14.402Z,0.00
2022-09-01T01:06:13.558Z,0.00
2022-09-01T01:07:13.559Z,0.00
2022-09-01T01:08:13.548Z,0.00
2022-09-01T01:09:13.527Z,0.00
2022-09-01T01:10:13.508Z,0.00
2022-09-01T01:11:13.498Z,0.00
2022-09-01T01:12:13.487Z,0.00
2022-09-01T01:13:13.495Z,0.00
2022-09-01T01:14:13.469Z,0.00
2022-09-01T01:15:13.462Z,0.00
2022-09-01T01:16:13.473Z,0.00
2022-09-01T01:17:13.436Z,0.00
2022-09-01T01:18:13.439Z,0.00
2022-09-01T01:19:13.446Z,0.00
2022-09-01T01:20:13.422Z,0.00
2022-09-01T01:21:13.387Z,0.00
2022-09-01T01:22:13.407Z,0.00
2022-09-01T01:23:13.398Z,0.00
2022-09-01T01:24:13.356Z,0.00
2022-09-01T01:25:13.346Z,0.00
2022-09-01T01:26:13.327Z,0.00
2022-09-01T01:27:13.327Z,0.00
2022-09-01T01:28:13.317Z,0.00
2022-09-01T01:29:13.296Z,0.00
2022-09-01T01:30:13.284Z,0.00
2022-09-01T01:31:13.381Z,0.00
2022-09-01T01:32:13.265Z,0.00
2022-09-01T01:33:13.323Z,0.00
2022-09-01T01:34:13.235Z,0.00
2022-09-01T01:35:13.233Z,0.00
2022-09-01T01:36:13.219Z,0.00
2022-09-01T01:37:13.204Z,0.00
2022-09-01T01:38:13.194Z,0.00
2022-09-01T01:39:13.195Z,0.00
2022-09-01T01:40:13.212Z,0.00
2022-09-01T01:41:13.163Z,0.00
2022-09-01T01:42:13.144Z,0.00
2022-09-01T01:43:13.154Z,0.00
2022-09-01T01:44:13.124Z,0.00
2022-09-01T01:45:13.114Z,0.00
2022-09-01T01:46:13.207Z,0.00
2022-09-01T01:47:13.096Z,0.00
2022-09-01T01:48:13.083Z,0.00
2022-09-01T01:49:13.087Z,0.00
2022-09-01T01:50:13.052Z,0.00
2022-09-01T01:51:13.043Z,0.00
2022-09-01T01:52:13.033Z,0.00
2022-09-01T01:53:13.058Z,0.00
2022-09-01T01:54:13.002Z,0.00
2022-09-01T01:55:13.014Z,0.00
2022-09-01T01:56:12.993Z,0.00
2022-09-01T01:57:12.973Z,0.00
2022-09-01T01:58:13.007Z,0.00
2022-09-01T01:59:12.963Z,0.00
2022-09-01T02:00:12.945Z,0.00
2022-09-01T02:01:13.026Z,0.00
2022-09-01T02:02:13.009Z,0.00
2022-09-01T02:03:12.911Z,0.00
2022-09-01T02:04:12.900Z,0.00
2022-09-01T02:05:12.891Z,0.00
2022-09-01T02:06:12.881Z,0.00
2022-09-01T02:07:12.867Z,0.00
2022-09-01T02:08:12.882Z,0.00
2022-09-01T02:09:12.851Z,0.00
2022-09-01T02:10:12.863Z,0.00
2022-09-01T02:11:12.819Z,0.00
2022-09-01T02:12:15.621Z,0.00
2022-09-01T02:13:12.791Z,0.00
2022-09-01T02:14:12.800Z,0.00
2022-09-01T02:15:12.780Z,0.00
2022-09-01T02:16:13.027Z,0.00
2022-09-01T02:17:12.753Z,0.00
2022-09-01T02:18:12.740Z,0.00
2022-09-01T02:19:12.720Z,0.00
2022-09-01T02:20:12.720Z,0.00
2022-09-01T02:21:17.670Z,0.00
2022-09-01T02:22:13.690Z,0.00
2022-09-01T02:23:12.680Z,0.00
2022-09-01T02:24:12.671Z,0.00
2022-09-01T02:25:12.668Z,0.00
2022-09-01T02:26:17.255Z,0.00
2022-09-01T02:27:13.629Z,0.00
2022-09-01T02:28:12.670Z,0.00
2022-09-01T02:29:12.639Z,0.00
2022-09-01T02:30:12.599Z,0.00
2022-09-01T02:31:12.646Z,0.00
2022-09-01T02:32:12.578Z,0.00
2022-09-01T02:33:12.568Z,0.00
2022-09-01T02:34:12.558Z,0.00
2022-09-01T02:35:12.559Z,0.00
2022-09-01T02:36:12.538Z,0.00
2022-09-01T02:37:12.517Z,0.00
2022-09-01T02:38:12.553Z,0.00
2022-09-01T02:39:12.497Z,0.00
2022-09-01T02:40:12.545Z,0.00
2022-09-01T02:41:12.477Z,0.00
2022-09-01T02:42:12.476Z,0.00
2022-09-01T02:43:12.449Z,0.00
2022-09-01T02:44:12.436Z,0.00
2022-09-01T02:45:12.438Z,0.00
2022-09-01T02:46:12.507Z,0.00
2022-09-01T02:47:12.409Z,0.00
2022-09-01T02:48:12.442Z,0.00
2022-09-01T02:49:12.387Z,0.00
2022-09-01T02:50:12.377Z,0.00
2022-09-01T02:51:12.365Z,0.00
2022-09-01T02:52:12.355Z,0.00
2022-09-01T02:53:12.336Z,0.00
2022-09-01T02:54:12.326Z,0.00
2022-09-01T02:55:12.318Z,0.00
2022-09-01T02:56:12.325Z,0.00
2022-09-01T02:57:12.296Z,0.00
2022-09-01T02:58:12.338Z,0.00
2022-09-01T02:59:12.273Z,0.00
2022-09-01T03:00:12.256Z,0.00
2022-09-01T03:01:12.314Z,0.00
2022-09-01T03:02:12.245Z,0.00
2022-09-01T03:03:12.225Z,0.00
2022-09-01T03:04:12.215Z,0.00
2022-09-01T03:05:12.243Z,0.00
2022-09-01T03:06:12.197Z,0.00
2022-09-01T03:07:12.194Z,0.00
2022-09-01T03:08:12.191Z,0.00
2022-09-01T03:09:12.160Z,0.00
2022-09-01T03:10:12.143Z,0.00
2022-09-01T03:11:13.146Z,0.00
2022-09-01T03:12:12.146Z,0.00
2022-09-01T03:13:12.114Z,0.00
2022-09-01T03:14:12.094Z,0.00
2022-09-01T03:15:12.297Z,0.00
2022-09-01T03:16:12.112Z,0.00
2022-09-01T03:17:12.071Z,0.00
2022-09-01T03:18:12.084Z,0.00
2022-09-01T03:19:12.054Z,0.00
2022-09-01T03:20:12.023Z,0.00
2022-09-01T03:21:12.024Z,0.00
2022-09-01T03:22:12.013Z,0.00
2022-09-01T03:23:12.021Z,0.00
2022-09-01T03:24:11.982Z,0.00
2022-09-01T03:25:11.972Z,0.00
2022-09-01T03:26:11.962Z,0.00
2022-09-01T03:27:11.959Z,0.00
2022-09-01T03:28:11.941Z,0.00
2022-09-01T03:29:11.941Z,0.00
2022-09-01T03:30:11.912Z,0.00
2022-09-01T03:31:11.910Z,0.00
2022-09-01T03:32:11.945Z,0.00
2022-09-01T03:33:11.881Z,0.00
2022-09-01T03:34:11.883Z,0.00
2022-09-01T03:35:11.861Z,0.00
2022-09-01T03:36:14.895Z,0.00
2022-09-01T03:37:11.840Z,0.00
2022-09-01T03:38:11.875Z,0.00
2022-09-01T03:39:16.487Z,0.00
2022-09-01T03:40:12.838Z,0.00
2022-09-01T03:41:11.800Z,0.00
2022-09-01T03:42:11.780Z,0.00
2022-09-01T03:43:11.769Z,0.00
2022-09-01T03:44:11.770Z,0.00
2022-09-01T03:45:11.751Z,0.00
2022-09-01T03:46:11.758Z,0.00
2022-09-01T03:47:11.729Z,0.00
2022-09-01T03:48:11.723Z,0.00
2022-09-01T03:49:11.717Z,0.00
2022-09-01T03:50:11.699Z,0.00
2022-09-01T03:51:11.680Z,0.00
2022-09-01T03:52:11.669Z,0.00
2022-09-01T03:53:11.662Z,0.00
2022-09-01T03:54:11.658Z,0.00
2022-09-01T03:55:11.646Z,0.00
2022-09-01T03:56:11.618Z,0.00
2022-09-01T03:57:11.616Z,0.00
2022-09-01T03:58:11.648Z,0.00
2022-09-01T03:59:11.588Z,0.00
2022-09-01T04:00:11.599Z,0.00
2022-09-01T04:01:13.889Z,0.00
2022-09-01T04:02:11.634Z,0.00
2022-09-01T04:03:11.546Z,0.00
2022-09-01T04:04:11.528Z,0.00
2022-09-01T04:05:11.525Z,0.00
2022-09-01T04:06:11.528Z,0.00
2022-09-01T04:07:13.460Z,0.00
2022-09-01T04:08:12.562Z,0.00
2022-09-01T04:09:11.490Z,0.00
2022-09-01T04:10:11.474Z,0.00
2022-09-01T04:11:11.477Z,0.00
2022-09-01T04:12:11.437Z,0.00
2022-09-01T04:13:11.428Z,0.00
2022-09-01T04:14:11.416Z,0.00
2022-09-01T04:15:11.407Z,0.00
2022-09-01T04:16:11.414Z,0.00
2022-09-01T04:17:11.406Z,0.00
2022-09-01T04:18:11.377Z,0.00
2022-09-01T04:19:11.356Z,0.00
2022-09-01T04:20:11.345Z,0.00
2022-09-01T04:21:11.336Z,0.00
2022-09-01T04:22:11.325Z,0.00
2022-09-01T04:23:11.327Z,0.00
2022-09-01T04:24:11.306Z,0.00
2022-09-01T04:25:11.294Z,0.00
2022-09-01T04:26:11.313Z,0.00
2022-09-01T04:27:11.294Z,0.00
2022-09-01T04:28:11.255Z,0.00
2022-09-01T04:29:11.246Z,0.00
2022-09-01T04:30:11.235Z,0.00
2022-09-01T04:31:11.273Z,0.00
2022-09-01T04:32:11.214Z,0.00
2022-09-01T04:33:11.214Z,0.00
2022-09-01T04:34:11.185Z,0.00
2022-09-01T04:35:11.194Z,0.00
2022-09-01T04:36:11.174Z,0.00
2022-09-01T04:37:11.153Z,0.00
2022-09-01T04:38:11.154Z,0.00
2022-09-01T04:39:11.916Z,0.00
2022-09-01T04:40:11.169Z,0.00
2022-09-01T04:41:11.114Z,0.00
2022-09-01T04:42:11.103Z,0.00
2022-09-01T04:43:11.105Z,0.00
2022-09-01T04:44:11.082Z,0.00
2022-09-01T04:45:11.418Z,0.00
2022-09-01T04:46:11.095Z,0.00
2022-09-01T04:47:11.062Z,0.00
2022-09-01T04:48:11.043Z,0.00
2022-09-01T04:49:13.025Z,0.00
2022-09-01T04:50:11.004Z,0.00
2022-09-01T04:51:11.006Z,0.00
2022-09-01T04:52:10.981Z,5.62
2022-09-01T04:53:11.001Z,5.62
2022-09-01T04:54:10.962Z,5.62
2022-09-01T04:55:10.991Z,5.62
2022-09-01T04:56:10.951Z,5.62
2022-09-01T04:57:10.932Z,5.62
2022-09-01T04:58:10.912Z,11.25
2022-09-01T04:59:10.920Z,11.25
2022-09-01T05:00:10.891Z,11.25
2022-09-01T05:01:10.967Z,11.25
2022-09-01T05:02:10.931Z,11.25
2022-09-01T05:03:10.872Z,16.88
2022-09-01T05:04:10.849Z,11.25
2022-09-01T05:05:10.841Z,11.25
2022-09-01T05:06:10.841Z,11.25
2022-09-01T05:07:10.810Z,11.25
2022-09-01T05:08:10.838Z,11.25
2022-09-01T05:09:10.790Z,11.25
2022-09-01T05:10:10.782Z,11.25
2022-09-01T05:11:10.769Z,11.25
2022-09-01T05:12:10.762Z,11.25
2022-09-01T05:13:10.769Z,11.25
2022-09-01T05:14:10.739Z,11.25
2022-09-01T05:15:10.720Z,11.25
2022-09-01T05:16:10.768Z,11.25
2022-09-01T05:17:10.699Z,11.25
2022-09-01T05:18:10.690Z,11.25
2022-09-01T05:19:10.689Z,11.25
2022-09-01T05:20:10.671Z,11.25
2022-09-01T05:21:10.686Z,11.25
2022-09-01T05:22:10.646Z,11.25
2022-09-01T05:23:10.639Z,16.88
2022-09-01T05:24:10.638Z,11.25
2022-09-01T05:25:10.608Z,11.25
2022-09-01T05:26:10.607Z,16.88
2022-09-01T05:27:10.592Z,11.25
2022-09-01T05:28:10.578Z,11.25
2022-09-01T05:29:10.757Z,11.25
2022-09-01T05:30:10.568Z,11.25
2022-09-01T05:31:10.608Z,11.25
2022-09-01T05:32:10.556Z,16.88
2022-09-01T05:33:10.519Z,16.88
2022-09-01T05:34:10.728Z,16.88
2022-09-01T05:35:10.496Z,22.50
2022-09-01T05:36:10.498Z,22.50
2022-09-01T05:37:10.476Z,22.50
2022-09-01T05:38:10.467Z,22.50
2022-09-01T05:39:10.459Z,22.50
2022-09-01T05:40:12.284Z,16.88
2022-09-01T05:41:10.436Z,16.88
2022-09-01T05:42:10.419Z,22.50
2022-09-01T05:43:10.405Z,28.12
2022-09-01T05:44:10.396Z,28.12
2022-09-01T05:45:10.386Z,28.12
2022-09-01T05:46:10.385Z,28.12
2022-09-01T05:47:10.366Z,33.75
2022-09-01T05:48:11.353Z,45.00
2022-09-01T05:49:10.336Z,45.00
2022-09-01T05:50:14.266Z,39.38
2022-09-01T05:51:22.632Z,39.38
2022-09-01T05:52:11.315Z,33.75
2022-09-01T05:53:11.009Z,33.75
2022-09-01T05:54:10.285Z,28.12
2022-09-01T05:55:10.275Z,22.50
2022-09-01T05:56:10.274Z,22.50
2022-09-01T05:57:32.745Z,16.88
2022-09-01T05:58:11.246Z,16.88
2022-09-01T05:59:26.368Z,16.88
2022-09-01T06:00:11.345Z,16.88
2022-09-01T06:01:10.242Z,16.88
2022-09-01T06:02:10.306Z,16.88
2022-09-01T06:03:10.357Z,16.88
2022-09-01T06:04:10.173Z,16.88
2022-09-01T06:05:10.174Z,16.88
2022-09-01T06:06:10.185Z,16.88
2022-09-01T06:07:12.768Z,11.25
2022-09-01T06:08:11.134Z,11.25
2022-09-01T06:09:10.114Z,11.25
2022-09-01T06:10:10.107Z,5.62
2022-09-01T06:11:10.113Z,5.62
2022-09-01T06:12:10.093Z,5.62
2022-09-01T06:13:10.656Z,5.62
2022-09-01T06:14:10.053Z,5.62
2022-09-01T06:15:10.049Z,5.62
2022-09-01T06:16:10.125Z,5.62
2022-09-01T06:17:10.023Z,5.62
2022-09-01T06:18:10.041Z,11.25
2022-09-01T06:19:09.993Z,11.25
2022-09-01T06:20:09.993Z,11.25
2022-09-01T06:21:09.983Z,11.25
2022-09-01T06:22:09.972Z,11.25
2022-09-01T06:23:09.951Z,11.25
2022-09-01T06:24:10.002Z,11.25
2022-09-01T06:25:09.961Z,11.25
2022-09-01T06:26:09.943Z,11.25
2022-09-01T06:27:09.927Z,11.25
2022-09-01T06:28:09.899Z,16.88
2022-09-01T06:29:09.883Z,16.88
2022-09-01T06:30:09.891Z,16.88
2022-09-01T06:31:09.881Z,16.88
2022-09-01T06:32:09.880Z,16.88
2022-09-01T06:33:09.838Z,16.88
2022-09-01T06:34:09.830Z,16.88
2022-09-01T06:35:09.820Z,16.88
2022-09-01T06:36:09.829Z,16.88
2022-09-01T06:37:09.807Z,16.88
2022-09-01T06:38:09.789Z,16.88
2022-09-01T06:39:09.772Z,22.50
2022-09-01T06:40:09.839Z,22.50
2022-09-01T06:41:09.760Z,22.50
2022-09-01T06:42:09.739Z,22.50
2022-09-01T06:43:09.728Z,22.50
2022-09-01T06:44:14.347Z,22.50
2022-09-01T06:45:09.699Z,22.50
2022-09-01T06:46:09.764Z,22.50
2022-09-01T06:47:09.701Z,28.12
2022-09-01T06:48:09.688Z,22.50
2022-09-01T06:49:09.660Z,28.12
2022-09-01T06:50:09.648Z,28.12
2022-09-01T06:51:19.090Z,28.12
2022-09-01T06:52:10.620Z,28.12
2022-09-01T06:54:14.024Z,33.75
2022-09-01T06:55:09.596Z,33.75
2022-09-01T06:56:09.629Z,39.38
2022-09-01T06:58:12.986Z,39.38
2022-09-01T06:59:09.558Z,39.38
2022-09-01T07:00:09.539Z,45.00
2022-09-01T07:01:09.528Z,39.38
2022-09-01T07:02:13.926Z,39.38
2022-09-01T07:03:10.506Z,39.38
2022-09-01T07:04:12.855Z,39.38
2022-09-01T07:05:59.731Z,39.38
2022-09-01T07:06:58.757Z,39.38
2022-09-01T07:08:10.457Z,45.00
2022-09-01T07:09:38.557Z,45.00
2022-09-01T07:10:26.185Z,45.00
2022-09-01T07:12:25.770Z,45.00
2022-09-01T07:13:10.409Z,45.00
2022-09-01T07:14:16.427Z,50.62
2022-09-01T07:17:25.593Z,45.00
2022-09-01T07:18:10.329Z,45.00
2022-09-01T07:19:09.326Z,45.00
2022-09-01T07:20:25.376Z,45.00
2022-09-01T07:21:38.747Z,39.38
2022-09-01T07:22:35.296Z,39.38
2022-09-01T07:23:10.274Z,45.00
2022-09-01T07:24:11.082Z,39.38
2022-09-01T07:25:11.939Z,39.38
2022-09-01T07:26:09.301Z,45.00
2022-09-01T07:27:09.452Z,39.38
2022-09-01T07:28:09.216Z,45.00
2022-09-01T07:29:09.224Z,45.00
2022-09-01T07:30:09.204Z,39.38
2022-09-01T07:35:11.902Z,50.62
2022-09-01T07:43:10.057Z,61.88
2022-09-01T07:44:09.022Z,61.88
2022-09-01T07:48:10.040Z,61.88
2022-09-01T07:50:37.073Z,61.88
2022-09-01T07:52:09.941Z,67.50
2022-09-01T07:53:08.963Z,78.75
2022-09-01T07:54:08.912Z,73.12
2022-09-01T07:55:08.911Z,73.12
2022-09-01T07:56:08.900Z,84.38
2022-09-01T07:57:08.882Z,78.75
2022-09-01T07:58:08.884Z,73.12
2022-09-01T07:59:08.871Z,84.38
2022-09-01T08:00:08.855Z,84.38
2022-09-01T08:01:08.844Z,78.75
2022-09-01T08:02:08.880Z,84.38
2022-09-01T08:03:08.944Z,84.38
2022-09-01T08:04:08.809Z,78.75
2022-09-01T08:05:08.791Z,73.12
2022-09-01T08:06:08.798Z,78.75
2022-09-01T08:07:08.772Z,73.12
2022-09-01T08:08:28.659Z,78.75
2022-09-01T08:09:11.872Z,73.12
2022-09-01T08:10:09.758Z,78.75
2022-09-01T08:11:08.725Z,78.75
2022-09-01T08:12:08.714Z,73.12
2022-09-01T08:13:15.220Z,78.75
2022-09-01T08:14:09.690Z,78.75
2022-09-01T08:16:17.023Z,78.75
2022-09-01T08:17:18.100Z,84.38
2022-09-01T08:18:09.692Z,90.00
2022-09-01T08:19:16.658Z,90.00
2022-09-01T08:20:09.637Z,78.75
2022-09-01T08:21:08.630Z,78.75
2022-09-01T08:22:08.610Z,78.75
2022-09-01T08:23:08.583Z,73.12
2022-09-01T08:24:08.579Z,78.75
2022-09-01T08:25:08.559Z,84.38
2022-09-01T08:26:08.556Z,78.75
2022-09-01T08:27:08.551Z,78.75
2022-09-01T08:28:08.543Z,78.75
2022-09-01T08:29:08.538Z,84.38
2022-09-01T08:30:08.509Z,84.38
2022-09-01T08:31:11.166Z,90.00
2022-09-01T08:32:08.488Z,101.25
2022-09-01T08:33:11.533Z,106.88
2022-09-01T08:34:08.457Z,101.25
2022-09-01T08:35:08.448Z,106.88
2022-09-01T08:36:08.438Z,106.88
2022-09-01T08:37:08.439Z,106.88
2022-09-01T08:38:08.447Z,106.88
2022-09-01T08:39:08.399Z,106.88
2022-09-01T08:40:08.429Z,118.12
2022-09-01T08:41:08.387Z,129.38
2022-09-01T08:42:08.754Z,129.38
2022-09-01T08:43:11.940Z,135.00
2022-09-01T08:44:09.368Z,151.88
2022-09-01T08:45:08.329Z,135.00
2022-09-01T08:46:08.363Z,129.38
2022-09-01T08:47:08.308Z,185.62
2022-09-01T08:48:57.340Z,185.62
2022-09-01T08:49:24.809Z,157.50
2022-09-01T08:50:09.289Z,151.88
2022-09-01T08:51:14.113Z,151.88
2022-09-01T08:52:09.255Z,168.75
2022-09-01T08:53:09.555Z,151.88
2022-09-01T08:54:08.236Z,146.25
2022-09-01T08:55:08.235Z,129.38
2022-09-01T08:56:08.592Z,163.12
2022-09-01T08:57:08.198Z,157.50
2022-09-01T08:58:08.195Z,151.88
2022-09-01T08:59:08.185Z,146.25
2022-09-01T09:00:08.173Z,157.50
2022-09-01T09:01:08.350Z,180.00
2022-09-01T09:02:08.165Z,146.25
2022-09-01T09:03:18.460Z,135.00
2022-09-01T09:04:09.156Z,135.00
2022-09-01T09:05:15.803Z,135.00
2022-09-01T09:06:09.116Z,112.50
2022-09-01T09:07:08.137Z,123.75
2022-09-01T09:08:08.199Z,123.75
2022-09-01T09:09:08.065Z,112.50
2022-09-01T09:10:08.066Z,123.75
2022-09-01T09:11:08.046Z,135.00
2022-09-01T09:12:08.692Z,118.12
2022-09-01T09:13:08.016Z,135.00
2022-09-01T09:14:08.014Z,135.00
2022-09-01T09:15:08.005Z,135.00
2022-09-01T09:16:08.604Z,112.50
2022-09-01T09:17:07.981Z,112.50
2022-09-01T09:18:20.219Z,106.88
2022-09-01T09:19:08.984Z,123.75
2022-09-01T09:20:09.186Z,106.88
2022-09-01T09:21:07.934Z,106.88
2022-09-01T09:22:07.935Z,106.88
2022-09-01T09:23:08.068Z,106.88
2022-09-01T09:24:07.895Z,112.50
2022-09-01T09:25:08.295Z,112.50
2022-09-01T09:26:08.326Z,112.50
2022-09-01T09:27:09.723Z,106.88
2022-09-01T09:28:07.874Z,118.12
2022-09-01T09:29:07.859Z,112.50
2022-09-01T09:30:11.224Z,118.12
2022-09-01T09:31:08.310Z,118.12
2022-09-01T09:32:22.479Z,123.75
2022-09-01T09:33:44.190Z,118.12
2022-09-01T09:34:08.787Z,123.75
2022-09-01T09:35:07.771Z,129.38
2022-09-01T09:36:07.774Z,129.38
2022-09-01T09:37:07.745Z,129.38
2022-09-01T09:38:07.740Z,129.38
2022-09-01T09:39:07.732Z,123.75
2022-09-01T09:40:09.893Z,129.38
2022-09-01T09:41:16.579Z,129.38
2022-09-01T09:42:08.704Z,118.12
2022-09-01T09:43:07.704Z,129.38
2022-09-01T09:44:11.049Z,123.75
2022-09-01T09:45:08.173Z,118.12
2022-09-01T09:46:23.351Z,118.12
2022-09-01T09:47:27.280Z,123.75
2022-09-01T09:48:10.826Z,123.75
2022-09-01T09:49:07.612Z,118.12
2022-09-01T09:50:07.640Z,112.50
2022-09-01T09:51:07.660Z,112.50
2022-09-01T09:52:07.590Z,112.50
2022-09-01T09:53:07.574Z,106.88
2022-09-01T09:54:07.581Z,112.50
2022-09-01T09:55:07.549Z,112.50
2022-09-01T09:56:07.562Z,112.50
2022-09-01T09:57:07.525Z,112.50
2022-09-01T09:58:07.512Z,118.12
2022-09-01T09:59:07.519Z,118.12
2022-09-01T10:00:07.491Z,118.12
2022-09-01T10:01:07.519Z,118.12
2022-09-01T10:02:07.483Z,118.12
2022-09-01T10:03:08.697Z,118.12
2022-09-01T10:04:07.544Z,118.12
2022-09-01T10:05:07.432Z,118.12
2022-09-01T10:06:07.421Z,123.75
2022-09-01T10:07:07.423Z,123.75
2022-09-01T10:08:07.401Z,129.38
2022-09-01T10:09:07.389Z,123.75
2022-09-01T10:10:07.370Z,112.50
2022-09-01T10:11:08.082Z,129.38
2022-09-01T10:12:07.361Z,129.38
2022-09-01T10:13:07.340Z,129.38
2022-09-01T10:14:07.331Z,123.75
2022-09-01T10:15:12.525Z,135.00
2022-09-01T10:16:09.199Z,140.62
2022-09-01T10:17:07.357Z,140.62
2022-09-01T10:18:20.632Z,135.00
2022-09-01T10:19:12.541Z,140.62
2022-09-01T10:20:07.259Z,135.00
2022-09-01T10:21:07.248Z,140.62
2022-09-01T10:22:07.238Z,146.25
2022-09-01T10:23:14.920Z,151.88
2022-09-01T10:24:27.341Z,140.62
2022-09-01T10:25:10.352Z,146.25
2022-09-01T10:26:09.479Z,163.12
2022-09-01T10:27:13.849Z,140.62
2022-09-01T10:28:08.191Z,129.38
2022-09-01T10:29:07.188Z,140.62
2022-09-01T10:30:18.948Z,140.62
2022-09-01T10:31:09.165Z,151.88
2022-09-01T10:32:30.731Z,151.88
2022-09-01T10:33:19.191Z,146.25
2022-09-01T10:34:08.108Z,146.25
2022-09-01T10:35:07.089Z,157.50
2022-09-01T10:36:07.924Z,163.12
2022-09-01T10:37:11.405Z,174.38
2022-09-01T10:38:11.939Z,163.12
2022-09-01T10:39:09.089Z,146.25
2022-09-01T10:40:07.071Z,146.25
2022-09-01T10:41:07.206Z,151.88
2022-09-01T10:42:07.008Z,157.50
2022-09-01T10:43:12.393Z,157.50
2022-09-01T10:44:07.999Z,151.88
2022-09-01T10:45:06.969Z,151.88
2022-09-01T10:46:08.983Z,146.25
2022-09-01T10:47:08.118Z,168.75
2022-09-01T10:48:06.940Z,135.00
2022-09-01T10:49:07.402Z,146.25
2022-09-01T10:50:10.103Z,146.25
2022-09-01T10:51:06.907Z,140.62
2022-09-01T10:52:12.858Z,123.75
2022-09-01T10:53:07.878Z,151.88
2022-09-01T10:54:06.991Z,129.38
2022-09-01T10:55:06.896Z,146.25
2022-09-01T10:56:23.990Z,196.88
2022-09-01T10:57:08.914Z,168.75
2022-09-01T10:59:30.076Z,168.75
2022-09-01T11:00:34.906Z,241.88
2022-09-01T11:01:11.368Z,219.38
2022-09-01T11:04:07.817Z,230.62
2022-09-01T11:05:06.800Z,208.12
2022-09-01T11:06:13.854Z,225.00
2022-09-01T11:07:14.899Z,241.88
2022-09-01T11:08:15.599Z,219.38
2022-09-01T11:09:07.697Z,236.25
2022-09-01T11:10:11.242Z,247.50
2022-09-01T11:11:07.677Z,185.62
2022-09-01T11:12:06.713Z,219.38
2022-09-01T11:13:06.656Z,213.75
2022-09-01T11:14:06.656Z,219.38
2022-09-01T11:15:07.009Z,219.38
2022-09-01T11:16:06.641Z,219.38
2022-09-01T11:17:06.685Z,213.75
2022-09-01T11:18:06.597Z,219.38
2022-09-01T11:19:06.585Z,213.75
2022-09-01T11:20:06.579Z,208.12
2022-09-01T11:21:06.596Z,163.12
2022-09-01T11:22:06.556Z,219.38
2022-09-01T11:23:06.536Z,213.75
2022-09-01T11:24:06.535Z,208.12
2022-09-01T11:25:12.421Z,213.75
2022-09-01T11:26:22.931Z,208.12
2022-09-01T11:27:07.495Z,208.12
2022-09-01T11:28:06.503Z,208.12
2022-09-01T11:29:06.517Z,213.75
2022-09-01T11:30:06.514Z,213.75
2022-09-01T11:31:06.509Z,213.75
2022-09-01T11:32:06.475Z,225.00
2022-09-01T11:33:06.427Z,213.75
2022-09-01T11:34:06.423Z,241.88
2022-09-01T11:35:06.406Z,241.88
2022-09-01T11:36:06.403Z,258.75
2022-09-01T11:37:06.394Z,264.38
2022-09-01T11:38:06.376Z,264.38
2022-09-01T11:39:06.365Z,264.38
2022-09-01T11:40:06.449Z,253.12
2022-09-01T11:41:06.334Z,264.38
2022-09-01T11:42:06.344Z,135.00
2022-09-01T11:43:06.314Z,106.88
2022-09-01T11:44:07.308Z,90.00
2022-09-01T11:45:06.304Z,84.38
2022-09-01T11:46:06.323Z,78.75
2022-09-01T11:47:08.580Z,84.38
2022-09-01T11:48:07.273Z,180.00
2022-09-01T11:49:06.244Z,185.62
2022-09-01T11:50:06.289Z,67.50
2022-09-01T11:51:06.223Z,73.12
2022-09-01T11:52:06.226Z,123.75
2022-09-01T11:53:06.203Z,56.25
2022-09-01T11:54:06.193Z,84.38
2022-09-01T11:55:06.184Z,151.88
2022-09-01T11:56:06.172Z,151.88
2022-09-01T11:57:06.164Z,163.12
2022-09-01T11:58:06.156Z,151.88
2022-09-01T11:59:06.137Z,146.25
2022-09-01T12:00:06.133Z,146.25
2022-09-01T12:01:06.162Z,123.75
2022-09-01T12:02:06.213Z,90.00
2022-09-01T12:03:06.228Z,67.50
2022-09-01T12:04:06.085Z,140.62
2022-09-01T12:05:06.079Z,129.38
2022-09-01T12:06:06.085Z,123.75
2022-09-01T12:07:06.045Z,135.00
2022-09-01T12:08:06.033Z,129.38
2022-09-01T12:09:06.033Z,129.38
2022-09-01T12:10:06.020Z,129.38
2022-09-01T12:11:06.003Z,129.38
2022-09-01T12:12:05.998Z,84.38
2022-09-01T12:13:06.013Z,90.00
2022-09-01T12:14:10.491Z,106.88
2022-09-01T12:15:07.120Z,90.00
2022-09-01T12:16:21.214Z,146.25
2022-09-01T12:17:06.985Z,84.38
2022-09-01T12:18:05.931Z,84.38
2022-09-01T12:19:05.923Z,61.88
2022-09-01T12:20:05.912Z,112.50
2022-09-01T12:21:05.883Z,106.88
2022-09-01T12:22:05.922Z,106.88
2022-09-01T12:23:05.876Z,106.88
2022-09-01T12:24:05.875Z,106.88
2022-09-01T12:25:05.853Z,106.88
2022-09-01T12:26:05.833Z,106.88
2022-09-01T12:27:05.821Z,106.88
2022-09-01T12:28:05.824Z,112.50
2022-09-01T12:29:05.804Z,112.50
2022-09-01T12:30:05.792Z,112.50
2022-09-01T12:31:07.561Z,112.50
2022-09-01T12:32:05.887Z,112.50
2022-09-01T12:34:06.759Z,78.75
2022-09-01T12:35:11.262Z,90.00
2022-09-01T12:36:06.732Z,95.62
2022-09-01T12:37:05.720Z,112.50
2022-09-01T12:38:09.447Z,90.00
2022-09-01T12:39:05.684Z,112.50
2022-09-01T12:40:05.681Z,101.25
2022-09-01T12:41:05.660Z,112.50
2022-09-01T12:42:05.744Z,90.00
2022-09-01T12:43:05.647Z,123.75
2022-09-01T12:44:05.717Z,123.75
2022-09-01T12:45:05.631Z,140.62
2022-09-01T12:46:05.630Z,140.62
2022-09-01T12:47:05.590Z,129.38
2022-09-01T12:48:05.600Z,135.00
2022-09-01T12:49:05.616Z,112.50
2022-09-01T12:50:05.644Z,101.25
2022-09-01T12:51:05.565Z,101.25
2022-09-01T12:52:05.542Z,95.62
2022-09-01T12:53:05.862Z,90.00
2022-09-01T12:54:05.522Z,90.00
2022-09-01T12:55:05.503Z,84.38
2022-09-01T12:56:05.499Z,84.38
2022-09-01T12:57:05.503Z,90.00
2022-09-01T12:58:05.470Z,84.38
2022-09-01T12:59:05.470Z,84.38
2022-09-01T13:00:05.440Z,95.62
2022-09-01T13:01:05.782Z,95.62
2022-09-01T13:02:05.576Z,101.25
2022-09-01T13:03:08.075Z,106.88
2022-09-01T13:04:05.401Z,118.12
2022-09-01T13:05:05.390Z,123.75
2022-09-01T13:06:05.381Z,123.75
2022-09-01T13:07:05.382Z,123.75
2022-09-01T13:08:05.361Z,106.88
2022-09-01T13:09:05.340Z,118.12
2022-09-01T13:10:05.576Z,123.75
2022-09-01T13:11:05.320Z,123.75
2022-09-01T13:12:06.705Z,118.12
2022-09-01T13:13:05.299Z,118.12
2022-09-01T13:14:05.291Z,118.12
2022-09-01T13:15:05.333Z,118.12
2022-09-01T13:16:05.380Z,118.12
2022-09-01T13:17:05.260Z,118.12
2022-09-01T13:18:05.269Z,118.12
2022-09-01T13:19:12.439Z,112.50
2022-09-01T13:20:06.220Z,106.88
2022-09-01T13:21:05.229Z,106.88